createdAt,value
2019-04-20T00:00:58.579Z,101859.11
2019-04-20T00:03:50.147Z,101859.57
2019-04-20T00:06:47.806Z,101855.59
2019-04-20T00:09:36.594Z,101856.34
2019-04-20T00:12:37.452Z,101858.27
2019-04-20T00:15:15.628Z,101868.91
2019-04-20T00:18:08.088Z,101860.24
2019-04-20T00:21:12.615Z,101854.84
2019-04-20T00:24:09.218Z,101854.34
2019-04-20T00:27:14.598Z,101853.83
2019-04-20T00:29:58.827Z,101853.67
2019-04-20T00:32:50.023Z,101852.12
2019-04-20T00:35:31.401Z,101847.33
2019-04-20T00:38:22.798Z,101845.26
2019-04-20T00:41:15.979Z,101843.93
2019-04-20T00:44:11.164Z,101845.61
2019-04-20T00:47:11.158Z,101848.66
2019-04-20T00:50:04.062Z,101842.21
2019-04-20T00:52:55.273Z,101845.77
2019-04-20T00:55:33.818Z,101852.19
2019-04-20T00:58:31.006Z,101852.62
2019-04-20T01:01:40.736Z,101855.59
2019-04-20T01:04:25.602Z,101856.53
2019-04-20T01:07:20.578Z,101850.28
2019-04-20T01:10:09.222Z,101847.44
2019-04-20T01:13:06.743Z,101843.16
2019-04-20T01:16:01.015Z,101846.30
2019-04-20T01:18:43.761Z,101848.28
2019-04-20T01:21:35.510Z,101850.55
2019-04-20T01:24:37.147Z,101855.57
2019-04-20T01:27:39.567Z,101850.66
2019-04-20T01:30:26.245Z,101858.23
2019-04-20T01:33:26.052Z,101850.72
2019-04-20T01:36:22.730Z,101848.33
2019-04-20T01:39:06.955Z,101847.66
2019-04-20T01:41:45.499Z,101848.70
2019-04-20T01:44:40.182Z,101847.00
2019-04-20T01:47:32.300Z,101848.84
2019-04-20T01:50:25.656Z,101845.09
2019-04-20T01:53:23.753Z,101852.66
2019-04-20T01:56:17.089Z,101851.18
2019-04-20T01:59:34.823Z,101849.38
2019-04-20T02:02:56.694Z,101849.14
2019-04-20T02:05:42.209Z,101856.30
2019-04-20T02:08:34.236Z,101856.70
2019-04-20T02:11:29.608Z,101850.31
2019-04-20T02:14:24.233Z,101857.60
2019-04-20T02:17:19.923Z,101855.28
2019-04-20T02:20:22.837Z,101854.02
2019-04-20T02:23:03.153Z,101856.81
2019-04-20T02:25:43.987Z,101852.52
2019-04-20T02:29:00.733Z,101853.56
2019-04-20T02:32:10.117Z,101851.25
2019-04-20T02:35:03.386Z,101860.09
2019-04-20T02:41:03.259Z,101862.08
2019-04-20T02:46:49.607Z,101858.40
2019-04-20T02:49:42.029Z,101858.16
2019-04-20T02:52:44.147Z,101852.52
2019-04-20T02:55:22.544Z,101854.27
2019-04-20T02:58:11.319Z,101853.80
2019-04-20T03:00:52.674Z,101855.75
2019-04-20T03:03:33.991Z,101853.20
2019-04-20T03:06:26.447Z,101853.29
2019-04-20T03:09:33.015Z,101851.98
2019-04-20T03:12:23.736Z,101850.71
2019-04-20T03:15:09.713Z,101848.59
2019-04-20T03:18:03.385Z,101853.88
2019-04-20T03:20:58.198Z,101854.88
2019-04-20T03:23:57.288Z,101848.75
2019-04-20T03:26:57.878Z,101848.52
2019-04-20T03:30:04.258Z,101851.67
2019-04-20T03:35:52.873Z,101864.44
2019-04-20T03:38:34.910Z,101858.47
2019-04-20T03:41:18.304Z,101855.66
2019-04-20T03:44:03.175Z,101864.34
2019-04-20T03:46:57.005Z,101865.13
2019-04-20T03:50:02.726Z,101868.06
2019-04-20T03:53:04.149Z,101868.46
2019-04-20T03:56:11.719Z,101854.88
2019-04-20T03:59:10.405Z,101862.00
2019-04-20T04:05:23.846Z,101864.55
2019-04-20T04:08:10.619Z,101865.13
2019-04-20T04:11:12.355Z,101867.41
2019-04-20T04:13:42.029Z,101893.42
2019-04-20T04:16:41.900Z,101875.92
2019-04-20T04:19:30.011Z,101873.28
2019-04-20T04:22:37.030Z,101873.14
2019-04-20T04:25:22.195Z,101874.55
2019-04-20T04:28:13.762Z,101878.95
2019-04-20T04:31:14.682Z,101880.67
2019-04-20T04:34:02.398Z,101881.88
2019-04-20T04:36:53.768Z,101883.56
2019-04-20T04:39:47.454Z,101888.63
2019-04-20T04:42:42.373Z,101891.02
2019-04-20T04:45:13.783Z,101892.53
2019-04-20T04:47:59.883Z,101890.67
2019-04-20T04:50:56.475Z,101895.06
2019-04-20T04:53:51.110Z,101895.35
2019-04-20T04:56:33.635Z,101888.55
2019-04-20T04:59:23.615Z,101889.65
2019-04-20T05:02:13.805Z,101897.87
2019-04-20T05:05:37.025Z,101896.41
2019-04-20T05:08:15.444Z,101897.27
2019-04-20T05:11:00.701Z,101899.13
2019-04-20T05:13:56.631Z,101892.80
2019-04-20T05:16:59.370Z,101891.34
2019-04-20T05:19:52.628Z,101890.05
2019-04-20T05:22:45.515Z,101893.56
2019-04-20T05:26:05.194Z,101892.53
2019-04-20T05:28:47.254Z,101899.36
2019-04-20T05:31:33.993Z,101899.09
2019-04-20T05:34:40.098Z,101899.48
2019-04-20T05:37:35.830Z,101897.84
2019-04-20T05:40:22.491Z,101894.48
2019-04-20T05:43:26.383Z,101896.55
2019-04-20T05:46:18.399Z,101895.88
2019-04-20T05:49:14.053Z,101896.94
2019-04-20T05:51:56.144Z,101898.84
2019-04-20T05:54:51.360Z,101903.82
2019-04-20T05:57:44.777Z,101900.21
2019-04-20T06:00:39.021Z,101893.20
2019-04-20T06:03:20.357Z,101899.51
2019-04-20T06:06:15.440Z,101892.48
2019-04-20T06:09:12.251Z,101895.09
2019-04-20T06:12:16.246Z,101890.09
2019-04-20T06:14:55.894Z,101891.36
2019-04-20T06:18:12.352Z,101898.42
2019-04-20T06:21:22.503Z,101893.47
2019-04-20T06:24:18.150Z,101891.27
2019-04-20T06:27:21.561Z,101887.77
2019-04-20T06:29:55.921Z,101886.45
2019-04-20T06:34:01.100Z,101889.42
2019-04-20T06:36:40.030Z,101887.55
2019-04-20T06:42:23.409Z,101885.97
2019-04-20T06:45:27.731Z,101888.87
2019-04-20T06:48:21.668Z,101883.66
2019-04-20T06:50:57.209Z,101892.35
2019-04-20T06:53:54.025Z,101886.75
2019-04-20T06:56:54.495Z,101883.97
2019-04-20T06:59:50.510Z,101885.89
2019-04-20T07:02:41.711Z,101880.81
2019-04-20T07:05:34.690Z,101883.67
2019-04-20T07:08:40.697Z,101881.48
2019-04-20T07:11:18.703Z,101876.77
2019-04-20T07:13:54.393Z,101880.75
2019-04-20T07:17:41.554Z,101881.27
2019-04-20T07:20:19.653Z,101874.19
2019-04-20T07:23:23.872Z,101875.39
2019-04-20T07:26:12.730Z,101878.08
2019-04-20T07:28:59.046Z,101880.97
2019-04-20T07:31:50.054Z,101873.27
2019-04-20T07:34:40.111Z,101867.58
2019-04-20T07:38:03.190Z,101873.31
2019-04-20T07:40:30.175Z,101866.92
2019-04-20T07:43:26.652Z,101872.69
2019-04-20T07:46:20.863Z,101867.63
2019-04-20T07:49:07.443Z,101867.91
2019-04-20T07:51:41.807Z,101876.36
2019-04-20T07:55:12.436Z,101873.19
2019-04-20T07:57:39.128Z,101876.32
2019-04-20T08:00:44.777Z,101872.47
2019-04-20T08:06:17.475Z,101872.20
2019-04-20T08:09:17.241Z,101871.16
2019-04-20T08:12:29.317Z,101869.45
2019-04-20T08:15:27.351Z,101867.52
2019-04-20T08:18:12.088Z,101863.56
2019-04-20T08:20:59.156Z,101865.14
2019-04-20T08:23:49.012Z,101862.38
2019-04-20T08:26:27.107Z,101860.84
2019-04-20T08:29:37.876Z,101866.66
2019-04-20T08:33:09.469Z,101855.64
2019-04-20T08:36:12.255Z,101857.38
2019-04-20T08:39:12.732Z,101855.61
2019-04-20T08:41:50.375Z,101855.05
2019-04-20T08:47:48.595Z,101857.43
2019-04-20T08:50:27.110Z,101856.63
2019-04-20T08:53:30.802Z,101858.92
2019-04-20T08:56:09.761Z,101852.41
2019-04-20T08:58:48.182Z,101857.09
2019-04-20T09:01:39.403Z,101852.06
2019-04-20T09:04:38.743Z,101855.08
2019-04-20T09:07:26.374Z,101850.70
2019-04-20T09:10:39.229Z,101844.65
2019-04-20T09:13:19.728Z,101841.09
2019-04-20T09:15:58.063Z,101843.63
2019-04-20T09:18:55.510Z,101839.48
2019-04-20T09:21:50.241Z,101836.17
2019-04-20T09:24:54.280Z,101839.19
2019-04-20T09:27:33.038Z,101834.31
2019-04-20T09:30:27.831Z,101834.30
2019-04-20T09:34:04.352Z,101828.67
2019-04-20T09:36:56.380Z,101823.60
2019-04-20T09:40:00.851Z,101826.13
2019-04-20T09:42:40.997Z,101824.28
2019-04-20T09:45:47.630Z,101824.04
2019-04-20T09:48:41.731Z,101816.56
2019-04-20T09:51:46.676Z,101812.58
2019-04-20T09:54:40.443Z,101807.80
2019-04-20T09:57:29.602Z,101809.31
2019-04-20T10:00:20.259Z,101806.61
2019-04-20T10:02:55.106Z,101794.53
2019-04-20T10:05:45.392Z,101798.05
2019-04-20T10:08:44.736Z,101788.55
2019-04-20T10:11:27.615Z,101794.59
2019-04-20T10:14:17.597Z,101792.17
2019-04-20T10:17:07.796Z,101788.39
2019-04-20T10:20:03.474Z,101794.53
2019-04-20T10:22:50.897Z,101792.31
2019-04-20T10:25:42.501Z,101784.98
2019-04-20T10:28:37.261Z,101785.34
2019-04-20T10:31:28.508Z,101780.73
2019-04-20T10:34:22.809Z,101778.87
2019-04-20T10:37:24.303Z,101777.39
2019-04-20T10:40:30.713Z,101778.66
2019-04-20T10:43:07.955Z,101773.23
2019-04-20T10:45:59.205Z,101783.05
2019-04-20T10:48:53.230Z,101777.83
2019-04-20T10:51:42.179Z,101768.01
2019-04-20T10:54:32.360Z,101779.92
2019-04-20T10:57:23.650Z,101762.09
2019-04-20T11:00:15.599Z,101756.84
2019-04-20T11:03:05.862Z,101763.55
2019-04-20T11:05:56.530Z,101760.94
2019-04-20T11:08:48.701Z,101762.59
2019-04-20T11:11:39.069Z,101756.88
2019-04-20T11:14:33.572Z,101760.50
2019-04-20T11:17:20.768Z,101753.82
2019-04-20T11:20:11.157Z,101749.13
2019-04-20T11:23:02.362Z,101751.95
2019-04-20T11:25:52.678Z,101752.79
2019-04-20T11:28:42.144Z,101752.70
2019-04-20T11:31:38.739Z,101749.52
2019-04-20T11:34:28.613Z,101736.64
2019-04-20T11:37:16.951Z,101731.30
2019-04-20T11:40:08.772Z,101723.03
2019-04-20T11:42:59.538Z,101719.17
2019-04-20T11:45:51.011Z,101718.69
2019-04-20T11:48:41.399Z,101721.56
2019-04-20T11:51:31.812Z,101718.84
2019-04-20T11:54:22.155Z,101713.12
2019-04-20T11:57:11.647Z,101710.11
2019-04-20T12:00:01.696Z,101707.87
2019-04-20T12:03:16.013Z,101708.67
2019-04-20T12:06:04.701Z,101702.67
2019-04-20T12:08:52.788Z,101699.94
2019-04-20T12:11:56.041Z,101693.39
2019-04-20T12:14:34.632Z,101696.83
2019-04-20T12:17:24.243Z,101692.39
2019-04-20T12:20:14.903Z,101688.69
2019-04-20T12:23:04.778Z,101692.20
2019-04-20T12:25:54.646Z,101684.25
2019-04-20T12:28:45.434Z,101684.81
2019-04-20T12:31:35.870Z,101684.06
2019-04-20T12:34:26.480Z,101681.27
2019-04-20T12:37:18.732Z,101678.06
2019-04-20T12:40:10.071Z,101676.47
2019-04-20T12:43:01.249Z,101673.85
2019-04-20T12:45:51.703Z,101672.94
2019-04-20T12:48:42.033Z,101670.45
2019-04-20T12:51:36.638Z,101666.00
2019-04-20T12:54:24.728Z,101666.30
2019-04-20T12:57:16.460Z,101667.07
2019-04-20T13:00:08.071Z,101662.05
2019-04-20T13:03:01.120Z,101660.50
2019-04-20T13:05:52.025Z,101647.48
2019-04-20T13:08:47.599Z,101652.58
2019-04-20T13:11:50.698Z,101646.19
2019-04-20T13:15:20.299Z,101648.79
2019-04-20T13:18:11.514Z,101642.32
2019-04-20T13:21:02.011Z,101629.91
2019-04-20T13:23:53.165Z,101632.20
2019-04-20T13:26:43.255Z,101633.71
2019-04-20T13:29:33.132Z,101627.53
2019-04-20T13:32:23.529Z,101624.38
2019-04-20T13:35:14.518Z,101622.67
2019-04-20T13:38:05.510Z,101624.59
2019-04-20T13:40:55.721Z,101629.18
2019-04-20T13:43:46.034Z,101629.30
2019-04-20T13:46:36.860Z,101619.92
2019-04-20T13:49:29.063Z,101619.13
2019-04-20T13:52:20.277Z,101617.09
2019-04-20T13:55:10.803Z,101606.63
2019-04-20T13:58:04.695Z,101603.14
2019-04-20T14:01:02.982Z,101604.03
2019-04-20T14:04:26.816Z,101593.92
2019-04-20T14:07:18.344Z,101589.87
2019-04-20T14:10:09.402Z,101582.64
2019-04-20T14:13:06.118Z,101577.09
2019-04-20T14:15:51.280Z,101579.60
2019-04-20T14:18:42.884Z,101571.86
2019-04-20T14:21:34.217Z,101572.98
2019-04-20T14:24:24.807Z,101563.97
2019-04-20T14:27:15.159Z,101564.20
2019-04-20T14:30:06.771Z,101567.19
2019-04-20T14:32:56.885Z,101553.53
2019-04-20T14:35:47.206Z,101553.08
2019-04-20T14:38:38.342Z,101547.08
2019-04-20T14:41:28.466Z,101547.75
2019-04-20T14:44:19.480Z,101543.16
2019-04-20T14:47:09.781Z,101538.44
2019-04-20T14:50:02.927Z,101533.70
2019-04-20T14:52:54.054Z,101529.48
2019-04-20T14:55:44.318Z,101524.64
2019-04-20T14:58:51.366Z,101520.80
2019-04-20T15:01:44.939Z,101524.49
2019-04-20T15:04:35.377Z,101522.97
2019-04-20T15:07:26.605Z,101522.98
2019-04-20T15:10:18.709Z,101519.62
2019-04-20T15:13:10.140Z,101524.27
2019-04-20T15:16:00.100Z,101512.03
2019-04-20T15:19:09.676Z,101511.96
2019-04-20T15:22:01.309Z,101511.31
2019-04-20T15:24:51.607Z,101507.57
2019-04-20T15:27:44.740Z,101508.03
2019-04-20T15:30:34.221Z,101509.00
2019-04-20T15:33:25.123Z,101502.53
2019-04-20T15:36:15.934Z,101499.55
2019-04-20T15:39:09.414Z,101505.81
2019-04-20T15:41:59.599Z,101502.70
2019-04-20T15:44:51.325Z,101493.80
2019-04-20T15:47:41.471Z,101498.05
2019-04-20T15:50:31.826Z,101490.17
2019-04-20T15:53:21.894Z,101493.89
2019-04-20T15:56:14.421Z,101492.34
2019-04-20T15:59:04.391Z,101494.89
2019-04-20T16:01:59.612Z,101490.02
2019-04-20T16:04:54.039Z,101485.89
2019-04-20T16:07:50.594Z,101480.44
2019-04-20T16:10:37.214Z,101483.80
2019-04-20T16:13:35.066Z,101481.41
2019-04-20T16:16:19.641Z,101479.38
2019-04-20T16:19:25.067Z,101474.78
2019-04-20T16:22:01.702Z,101475.13
2019-04-20T16:24:55.818Z,101471.04
2019-04-20T16:27:45.689Z,101463.84
2019-04-20T16:30:35.837Z,101460.31
2019-04-20T16:33:26.336Z,101461.98
2019-04-20T16:36:16.544Z,101459.00
2019-04-20T16:39:09.724Z,101452.39
2019-04-20T16:42:02.384Z,101454.09
2019-04-20T16:44:53.633Z,101451.14
2019-04-20T16:47:44.141Z,101451.48
2019-04-20T16:50:35.229Z,101448.78
2019-04-20T16:53:26.760Z,101441.44
2019-04-20T16:56:18.953Z,101445.41
2019-04-20T16:59:10.330Z,101430.26
2019-04-20T17:02:00.585Z,101442.79
2019-04-20T17:04:53.313Z,101440.45
2019-04-20T17:07:44.880Z,101436.63
2019-04-20T17:10:34.956Z,101436.68
2019-04-20T17:13:35.225Z,101437.59
2019-04-20T17:16:17.544Z,101434.39
2019-04-20T17:19:08.354Z,101437.23
2019-04-20T17:21:59.159Z,101433.16
2019-04-20T17:24:51.535Z,101436.27
2019-04-20T17:28:00.196Z,101428.88
2019-04-20T17:31:13.579Z,101430.64
2019-04-20T17:34:29.731Z,101433.19
2019-04-20T17:37:06.599Z,101438.24
2019-04-20T17:40:19.170Z,101441.04
2019-04-20T17:42:59.997Z,101432.27
2019-04-20T17:45:50.371Z,101429.82
2019-04-20T17:48:43.255Z,101432.09
2019-04-20T17:51:47.945Z,101434.63
2019-04-20T17:54:23.128Z,101430.53
2019-04-20T17:57:13.277Z,101439.16
2019-04-20T18:00:15.714Z,101440.59
2019-04-20T18:03:41.226Z,101443.98
2019-04-20T18:06:18.357Z,101441.32
2019-04-20T18:09:03.131Z,101442.78
2019-04-20T18:11:50.199Z,101440.89
2019-04-20T18:14:48.069Z,101445.31
2019-04-20T18:18:00.246Z,101445.33
2019-04-20T18:21:06.441Z,101449.22
2019-04-20T18:23:58.159Z,101448.42
2019-04-20T18:27:07.192Z,101450.92
2019-04-20T18:29:58.419Z,101453.95
2019-04-20T18:32:37.745Z,101450.36
2019-04-20T18:35:36.210Z,101448.13
2019-04-20T18:38:21.898Z,101452.81
2019-04-20T18:41:23.068Z,101456.66
2019-04-20T18:44:04.667Z,101455.54
2019-04-20T18:47:21.621Z,101453.31
2019-04-20T18:49:57.179Z,101452.73
2019-04-20T18:52:40.079Z,101452.10
2019-04-20T18:55:41.173Z,101453.17
2019-04-20T18:58:22.902Z,101454.50
2019-04-20T19:01:13.311Z,101452.27
2019-04-20T19:04:03.729Z,101457.16
2019-04-20T19:06:56.237Z,101466.45
2019-04-20T19:09:48.480Z,101464.18
2019-04-20T19:12:47.771Z,101466.88
2019-04-20T19:16:16.637Z,101476.38
2019-04-20T19:19:24.436Z,101475.16
2019-04-20T19:22:08.002Z,101476.45
2019-04-20T19:24:58.474Z,101473.84
2019-04-20T19:27:52.660Z,101472.66
2019-04-20T19:30:46.817Z,101478.90
2019-04-20T19:33:53.503Z,101478.55
2019-04-20T19:36:34.051Z,101474.83
2019-04-20T19:39:30.318Z,101480.79
2019-04-20T19:42:18.192Z,101478.45
2019-04-20T19:45:27.773Z,101478.06
2019-04-20T19:48:09.548Z,101478.77
2019-04-20T19:51:05.904Z,101476.42
2019-04-20T19:53:53.132Z,101481.49
2019-04-20T19:56:42.483Z,101478.61
2019-04-20T19:59:26.002Z,101474.02
2019-04-20T20:02:09.774Z,101475.22
2019-04-20T20:05:05.387Z,101478.59
2019-04-20T20:07:57.453Z,101479.56
2019-04-20T20:10:45.714Z,101482.70
2019-04-20T20:13:42.053Z,101479.56
2019-04-20T20:16:50.488Z,101478.63
2019-04-20T20:19:32.375Z,101478.23
2019-04-20T20:22:21.679Z,101480.56
2019-04-20T20:25:03.242Z,101480.73
2019-04-20T20:28:03.615Z,101478.69
2019-04-20T20:30:58.115Z,101477.45
2019-04-20T20:33:56.476Z,101476.20
2019-04-20T20:36:38.295Z,101476.05
2019-04-20T20:39:27.645Z,101477.83
2019-04-20T20:42:28.179Z,101476.84
2019-04-20T20:45:19.037Z,101481.62
2019-04-20T20:48:15.786Z,101479.88
2019-04-20T20:51:10.561Z,101482.97
2019-04-20T20:53:54.029Z,101477.13
2019-04-20T20:56:42.264Z,101481.06
2019-04-20T20:59:35.404Z,101476.27
2019-04-20T21:02:23.649Z,101478.92
2019-04-20T21:05:09.696Z,101479.08
2019-04-20T21:07:59.732Z,101476.86
2019-04-20T21:10:51.065Z,101479.28
2019-04-20T21:13:46.485Z,101478.91
2019-04-20T21:16:36.748Z,101474.70
2019-04-20T21:19:45.319Z,101473.75
2019-04-20T21:22:33.825Z,101481.23
2019-04-20T21:25:27.693Z,101481.67
2019-04-20T21:28:13.210Z,101478.52
2019-04-20T21:31:08.426Z,101476.69
2019-04-20T21:33:55.260Z,101474.33
2019-04-20T21:36:47.170Z,101476.41
2019-04-20T21:39:44.191Z,101474.02
2019-04-20T21:42:33.893Z,101475.26
2019-04-20T21:45:25.520Z,101480.55
2019-04-20T21:48:35.589Z,101476.27
2019-04-20T21:51:18.944Z,101478.52
2019-04-20T21:53:58.718Z,101478.55
2019-04-20T21:56:57.510Z,101482.47
2019-04-20T21:59:45.000Z,101476.54
2019-04-20T22:02:37.737Z,101475.32
2019-04-20T22:05:23.408Z,101481.98
2019-04-20T22:08:16.045Z,101481.29
2019-04-20T22:11:05.960Z,101479.78
2019-04-20T22:13:55.951Z,101481.84
2019-04-20T22:16:49.686Z,101477.30
2019-04-20T22:19:45.764Z,101474.15
2019-04-20T22:22:45.441Z,101478.09
2019-04-20T22:25:37.395Z,101473.86
2019-04-20T22:28:13.903Z,101470.63
2019-04-20T22:31:06.248Z,101471.77
2019-04-20T22:33:56.333Z,101471.58
2019-04-20T22:36:48.621Z,101471.11
2019-04-20T22:39:46.510Z,101470.98
2019-04-20T22:42:37.740Z,101472.79
2019-04-20T22:45:25.422Z,101471.80
2019-04-20T22:48:18.940Z,101466.17
2019-04-20T22:51:25.987Z,101468.20
2019-04-20T22:54:17.551Z,101470.25
2019-04-20T22:57:02.452Z,101462.77
2019-04-20T22:59:52.400Z,101461.48
2019-04-20T23:02:34.780Z,101463.23
2019-04-20T23:05:25.268Z,101449.77
2019-04-20T23:08:15.184Z,101446.45
2019-04-20T23:11:09.355Z,101443.59
2019-04-20T23:13:57.971Z,101436.32
2019-04-20T23:16:51.826Z,101440.23
2019-04-20T23:19:47.215Z,101432.23
2019-04-20T23:22:37.058Z,101432.91
2019-04-20T23:25:23.008Z,101433.58
2019-04-20T23:28:15.863Z,101426.34
2019-04-20T23:31:11.671Z,101423.97
2019-04-20T23:34:01.719Z,101421.64
2019-04-20T23:36:50.614Z,101422.74
2019-04-20T23:39:42.845Z,101421.53
2019-04-20T23:42:45.547Z,101416.97
2019-04-20T23:45:57.113Z,101415.16
2019-04-20T23:49:15.143Z,101415.81
2019-04-20T23:52:16.784Z,101410.21
2019-04-20T23:54:55.722Z,101415.75
2019-04-20T23:57:41.868Z,101409.55
